CheckWX is a tool to help pilots better visualize weather data.  It is not intended as a substitute for an official pre-flight weather briefing.

11:40:49 UTC

PARC METAR
Arctic Village Airport
Arctic Village, Alaska, USA
Current

2 hours ago

PARC 040956Z AUTO 35003KT 8SM CLR M19/M21 A2988 RMK AO2 SLP184 T11891206 FZRANO
Observed
Apr-4 @ 09:56 UTC
Wind
  • 350° at 3 KTS
Visibility
Flight Rules
VFR
Cloud Levels
  • Clear skies
Temperature
-19°C / -2°F
Dewpoint
-21°C / -6°F
Humidity
84%
Altimeter
29.88" Hg
Pressure
1011.82 hPa
Previous

5 hours ago

PARC 040656Z AUTO 03004KT 10SM CLR M15/M19 A2992 RMK AO2 SLP204 T11501189 FZRANO
Observed
Apr-4 @ 06:56 UTC
Wind
  • 030° at 4 KTS
Visibility
Flight Rules
VFR
Cloud Levels
  • Clear skies
Temperature
-15°C / 5°F
Dewpoint
-19°C / -2°F
Humidity
72%
Altimeter
29.92" Hg
Pressure
1013.22 hPa
Previous

7 hours ago

PARC 040456Z AUTO 27004KT 10SM CLR M11/M16 A2993 RMK AO2 SLP210 T11111156 FZRANO
Observed
Apr-4 @ 04:56 UTC
Wind
  • 270° at 4 KTS
Visibility
Flight Rules
VFR
Cloud Levels
  • Clear skies
Temperature
-11°C / 12°F
Dewpoint
-16°C / 3°F
Humidity
67%
Altimeter
29.93" Hg
Pressure
1013.52 hPa